Time;durP1;ratioP1;P1;durP2;ratioP2;P2;SDS_P1;SDS_P2;PMS_P1;PMS_P2;Temp;Humidity;BMP_temperature;BMP_pressure;BME280_temperature;BME280_humidity;BME280_pressure;Samples;Min_cycle;Max_cycle;Signal;HPM_P1;HPM_P2
2024/03/13 00:00:41;;;;;;;;;;;6.90;99.90;;;;;;6156489;23;19983;-76
2024/03/13 00:03:08;;;;;;;;;;;6.90;99.90;;;;;;6155831;23;19932;-76
2024/03/13 00:05:33;;;;;;;;;;;6.80;99.90;;;;;;6155797;23;20566;-76
2024/03/13 00:07:59;;;;;;;;;;;6.80;99.90;;;;;;6156545;23;19935;-76
2024/03/13 00:10:26;;;;;;;;;;;6.70;99.90;;;;;;6155241;23;19909;-76
2024/03/13 00:12:51;;;;;;;;;;;6.70;99.90;;;;;;6156005;23;19929;-76
2024/03/13 00:15:17;;;;;;;;;;;6.70;99.90;;;;;;6154667;23;19909;-76
2024/03/13 00:17:44;;;;;;;;;;;6.70;99.90;;;;;;6154441;23;20051;-76
2024/03/13 00:20:12;;;;;;;;;;;6.70;99.90;;;;;;6154070;23;19917;-76
2024/03/13 00:22:40;;;;;;;;;;;6.70;99.90;;;;;;6154154;23;19908;-76
2024/03/13 00:25:10;;;;;;;;;;;6.70;99.90;;;;;;6130367;23;19913;-76
2024/03/13 00:27:37;;;;;;;;;;;6.70;99.90;;;;;;6155334;23;19909;-76
2024/03/13 00:30:02;;;;;;;;;;;6.70;99.90;;;;;;6130115;23;19967;-76
2024/03/13 00:32:28;;;;;;;;;;;6.70;99.90;;;;;;6155566;23;19990;-76
2024/03/13 00:34:54;;;;;;;;;;;6.60;99.90;;;;;;6130858;23;20467;-76
2024/03/13 00:37:21;;;;;;;;;;;6.70;99.90;;;;;;6130651;23;19920;-76
2024/03/13 00:39:48;;;;;;;;;;;6.60;99.90;;;;;;6179802;23;19912;-76
2024/03/13 00:42:13;;;;;;;;;;;6.60;99.90;;;;;;6130467;23;19923;-76
2024/03/13 00:44:39;;;;;;;;;;;6.70;99.90;;;;;;6154535;23;20190;-76
2024/03/13 00:47:08;;;;;;;;;;;6.70;99.90;;;;;;6130164;23;19917;-76
2024/03/13 00:49:34;;;;;;;;;;;6.70;99.90;;;;;;6154264;23;19912;-76
2024/03/13 00:52:00;;;;;;;;;;;6.70;99.90;;;;;;6154095;23;19938;-76
2024/03/13 00:54:30;;;;;;;;;;;6.70;99.90;;;;;;6129268;23;19908;-76
2024/03/13 00:56:57;;;;;;;;;;;6.70;99.90;;;;;;6153510;23;20217;-76
2024/03/13 00:59:23;;;;;;;;;;;6.60;99.90;;;;;;6153955;23;19913;-75
2024/03/13 01:01:49;;;;;;;;;;;6.60;99.90;;;;;;6128773;23;19916;-76
2024/03/13 01:04:16;;;;;;;;;;;6.60;99.90;;;;;;6155326;23;19912;-76
2024/03/13 01:06:42;;;;;;;;;;;6.50;99.90;;;;;;6154680;23;19944;-76
2024/03/13 01:09:10;;;;;;;;;;;6.50;99.90;;;;;;6153901;23;19917;-76
2024/03/13 01:11:36;;;;;;;;;;;6.40;99.90;;;;;;6106090;23;19980;-76
2024/03/13 01:14:04;;;;;;;;;;;6.40;99.90;;;;;;6154556;23;20217;-76
2024/03/13 01:16:30;;;;;;;;;;;6.40;99.90;;;;;;6154161;23;20626;-76
2024/03/13 01:18:56;;;;;;;;;;;6.40;99.90;;;;;;6156011;23;19971;-76
2024/03/13 01:21:22;;;;;;;;;;;6.40;99.90;;;;;;6155401;23;19920;-76
2024/03/13 01:23:48;;;;;;;;;;;6.40;99.90;;;;;;6155218;23;20566;-75
2024/03/13 01:26:13;;;;;;;;;;;6.30;99.90;;;;;;6130049;23;20624;-76
2024/03/13 01:28:41;;;;;;;;;;;6.40;99.90;;;;;;6130162;23;20225;-76
2024/03/13 01:31:07;;;;;;;;;;;6.30;99.90;;;;;;6154497;23;19963;-75
2024/03/13 01:33:33;;;;;;;;;;;6.30;99.90;;;;;;6154636;23;20293;-76
2024/03/13 01:35:59;;;;;;;;;;;6.30;99.90;;;;;;6154685;23;20361;-76
2024/03/13 01:38:24;;;;;;;;;;;6.20;99.90;;;;;;6154513;23;19956;-76
2024/03/13 01:57:29;;;;;;;;;;;6.10;99.90;;;;;;6157585;23;19912;-76
2024/03/13 02:02:43;;;;;;;;;;;6.10;99.90;;;;;;6153759;23;19908;-76
2024/03/13 02:05:09;;;;;;;;;;;6.00;99.90;;;;;;6153625;23;19967;-76
2024/03/13 02:07:34;;;;;;;;;;;6.00;99.90;;;;;;6154275;23;20293;-76
2024/03/13 02:10:00;;;;;;;;;;;6.00;99.90;;;;;;6153898;23;19909;-76
2024/03/13 02:12:26;;;;;;;;;;;5.90;99.90;;;;;;6154418;23;19940;-76
2024/03/13 02:14:52;;;;;;;;;;;5.90;99.90;;;;;;6154380;23;19975;-76
2024/03/13 02:17:18;;;;;;;;;;;5.80;99.90;;;;;;6154436;23;19963;-76
2024/03/13 02:19:44;;;;;;;;;;;5.80;99.90;;;;;;6179415;23;19923;-76
2024/03/13 02:22:09;;;;;;;;;;;5.70;99.90;;;;;;6154140;23;19972;-76
2024/03/13 02:24:35;;;;;;;;;;;5.70;99.90;;;;;;6154123;23;19987;-76
2024/03/13 02:27:07;;;;;;;;;;;5.70;99.90;;;;;;6154908;23;20494;-76
2024/03/13 02:29:33;;;;;;;;;;;5.60;99.90;;;;;;6155688;23;19991;-76
2024/03/13 02:32:00;;;;;;;;;;;5.70;99.90;;;;;;6131884;23;20286;-76
2024/03/13 02:34:26;;;;;;;;;;;5.70;99.90;;;;;;6155800;23;19989;-76
2024/03/13 02:36:54;;;;;;;;;;;5.70;99.90;;;;;;6130762;23;19916;-76
2024/03/13 02:39:20;;;;;;;;;;;5.70;99.90;;;;;;6179878;23;19908;-77
2024/03/13 02:41:47;;;;;;;;;;;5.60;99.90;;;;;;6154636;23;19923;-76
2024/03/13 02:44:13;;;;;;;;;;;5.60;99.90;;;;;;6155001;23;19908;-76
2024/03/13 02:46:40;;;;;;;;;;;5.60;99.90;;;;;;6130467;23;19909;-76
2024/03/13 02:49:05;;;;;;;;;;;5.60;99.90;;;;;;6155712;23;20357;-76
2024/03/13 02:51:31;;;;;;;;;;;5.70;99.90;;;;;;6155959;23;19915;-77
2024/03/13 02:53:56;;;;;;;;;;;5.60;99.90;;;;;;6155944;23;19980;-77
2024/03/13 02:56:22;;;;;;;;;;;5.60;99.90;;;;;;6156380;23;19947;-76
2024/03/13 02:58:48;;;;;;;;;;;5.60;99.90;;;;;;6156980;23;19909;-76
2024/03/13 03:01:14;;;;;;;;;;;5.60;99.90;;;;;;6156853;23;19923;-76
2024/03/13 03:03:40;;;;;;;;;;;5.60;99.90;;;;;;6156159;23;20214;-76
2024/03/13 03:06:06;;;;;;;;;;;5.50;99.90;;;;;;6156081;23;20361;-76
2024/03/13 03:08:33;;;;;;;;;;;5.50;99.90;;;;;;6131325;23;19963;-76
2024/03/13 03:11:00;;;;;;;;;;;5.50;99.90;;;;;;6132643;23;19947;-76
2024/03/13 03:13:26;;;;;;;;;;;5.50;99.90;;;;;;6156586;23;19935;-76
2024/03/13 03:15:52;;;;;;;;;;;5.50;99.90;;;;;;6157264;23;20600;-77
2024/03/13 03:18:17;;;;;;;;;;;5.40;99.90;;;;;;6155940;23;19909;-76
2024/03/13 03:20:45;;;;;;;;;;;5.40;99.90;;;;;;6180586;23;20214;-76
2024/03/13 03:23:11;;;;;;;;;;;5.30;99.90;;;;;;6156701;23;19936;-76
2024/03/13 03:25:37;;;;;;;;;;;5.30;99.90;;;;;;6156258;23;19939;-76
2024/03/13 03:28:03;;;;;;;;;;;5.30;99.90;;;;;;6156485;23;19909;-76
2024/03/13 03:30:32;;;;;;;;;;;5.30;99.90;;;;;;6156770;23;19912;-76
2024/03/13 03:33:00;;;;;;;;;;;5.30;99.90;;;;;;6180158;23;19920;-76
2024/03/13 03:35:27;;;;;;;;;;;5.30;99.90;;;;;;6156428;23;19967;-76
2024/03/13 03:37:53;;;;;;;;;;;5.30;99.90;;;;;;6155935;23;19913;-77
2024/03/13 03:40:19;;;;;;;;;;;5.30;99.90;;;;;;6130584;23;19978;-76
2024/03/13 03:42:46;;;;;;;;;;;5.20;99.90;;;;;;6106807;23;20006;-76
2024/03/13 03:45:12;;;;;;;;;;;5.20;99.90;;;;;;6155451;23;19915;-76
2024/03/13 03:47:39;;;;;;;;;;;5.20;99.90;;;;;;6155978;23;19909;-76
2024/03/13 03:50:07;;;;;;;;;;;5.20;99.90;;;;;;6180327;23;19909;-76
2024/03/13 03:52:33;;;;;;;;;;;5.20;99.90;;;;;;6155664;23;20202;-76
2024/03/13 03:54:59;;;;;;;;;;;5.20;99.90;;;;;;6131091;23;19916;-76
2024/03/13 03:57:24;;;;;;;;;;;5.20;99.90;;;;;;6157118;23;19968;-76
2024/03/13 03:59:50;;;;;;;;;;;5.20;99.90;;;;;;6131808;23;19979;-76
2024/03/13 04:02:16;;;;;;;;;;;5.20;99.90;;;;;;6155819;23;19912;-76
2024/03/13 04:04:42;;;;;;;;;;;5.20;99.90;;;;;;6153472;23;19908;-76
2024/03/13 04:07:11;;;;;;;;;;;5.20;99.90;;;;;;6155448;23;19909;-76
2024/03/13 04:09:36;;;;;;;;;;;5.20;99.90;;;;;;6156885;23;19916;-76
2024/03/13 04:12:02;;;;;;;;;;;5.10;99.90;;;;;;6130438;23;19912;-76
2024/03/13 04:14:28;;;;;;;;;;;5.10;99.90;;;;;;6180140;23;19913;-76
2024/03/13 04:16:54;;;;;;;;;;;5.10;99.90;;;;;;6180495;23;20581;-76
2024/03/13 04:19:21;;;;;;;;;;;5.00;99.90;;;;;;6155834;23;20213;-76
2024/03/13 04:21:47;;;;;;;;;;;5.00;99.90;;;;;;6154902;23;19921;-76
2024/03/13 04:24:13;;;;;;;;;;;5.00;99.90;;;;;;6155582;23;19912;-76
2024/03/13 04:26:41;;;;;;;;;;;5.00;99.90;;;;;;6154916;23;20015;-76
2024/03/13 04:29:07;;;;;;;;;;;4.90;99.90;;;;;;6154781;23;19909;-76
2024/03/13 04:31:33;;;;;;;;;;;4.90;99.90;;;;;;6154658;23;19912;-76
2024/03/13 04:33:59;;;;;;;;;;;4.90;99.90;;;;;;6129819;23;20246;-76
2024/03/13 04:36:24;;;;;;;;;;;4.90;99.90;;;;;;6156493;23;20001;-76
2024/03/13 04:38:53;;;;;;;;;;;4.80;99.90;;;;;;6155551;23;20278;-76
2024/03/13 04:41:19;;;;;;;;;;;4.80;99.90;;;;;;6155107;23;19940;-76
2024/03/13 04:43:46;;;;;;;;;;;4.70;99.90;;;;;;6155190;23;19935;-76
2024/03/13 04:46:17;;;;;;;;;;;4.70;99.90;;;;;;6153767;23;19979;-76
2024/03/13 04:48:44;;;;;;;;;;;4.70;99.90;;;;;;6178672;23;19913;-76
2024/03/13 04:51:10;;;;;;;;;;;4.60;99.90;;;;;;6154411;23;19913;-76
2024/03/13 04:53:36;;;;;;;;;;;4.70;99.90;;;;;;6129601;23;20012;-76
2024/03/13 04:56:03;;;;;;;;;;;4.60;99.90;;;;;;6153002;23;19913;-76
2024/03/13 04:58:29;;;;;;;;;;;4.60;99.90;;;;;;6153659;23;19916;-76
2024/03/13 05:00:55;;;;;;;;;;;4.60;99.90;;;;;;6178186;23;19959;-76
2024/03/13 05:03:20;;;;;;;;;;;4.60;99.90;;;;;;6179366;23;19908;-76
2024/03/13 05:05:46;;;;;;;;;;;4.60;99.90;;;;;;6154677;23;19974;-76
2024/03/13 05:08:13;;;;;;;;;;;4.60;99.90;;;;;;6179361;23;20218;-76
2024/03/13 05:10:39;;;;;;;;;;;4.60;99.90;;;;;;6155241;23;19909;-76
2024/03/13 05:13:04;;;;;;;;;;;4.60;99.90;;;;;;6155039;23;19909;-76
2024/03/13 05:15:30;;;;;;;;;;;4.50;99.90;;;;;;6154787;23;19912;-76
2024/03/13 05:17:57;;;;;;;;;;;4.50;99.90;;;;;;6154519;23;19920;-76
2024/03/13 05:20:23;;;;;;;;;;;4.50;99.90;;;;;;6155756;23;19920;-75
2024/03/13 05:22:48;;;;;;;;;;;4.60;99.90;;;;;;6155478;23;20032;-76
2024/03/13 05:25:17;;;;;;;;;;;4.60;99.90;;;;;;6155298;23;19936;-76
2024/03/13 05:27:46;;;;;;;;;;;4.60;99.90;;;;;;6155232;23;19959;-76
2024/03/13 05:30:12;;;;;;;;;;;4.60;99.90;;;;;;6154978;23;19928;-76
2024/03/13 05:32:39;;;;;;;;;;;4.50;99.90;;;;;;6155084;23;19940;-76
2024/03/13 05:35:08;;;;;;;;;;;4.50;99.90;;;;;;6155928;23;19963;-76
2024/03/13 05:37:36;;;;;;;;;;;4.50;99.90;;;;;;6156168;23;20168;-76
2024/03/13 05:40:11;;;;;;;;;;;4.50;99.90;;;;;;6156312;23;20214;-76
2024/03/13 05:42:38;;;;;;;;;;;4.50;99.90;;;;;;6157806;23;19972;-76
2024/03/13 05:45:06;;;;;;;;;;;4.50;99.90;;;;;;6155906;23;19913;-76
2024/03/13 05:47:32;;;;;;;;;;;4.60;99.90;;;;;;6155788;23;19951;-76
2024/03/13 05:49:57;;;;;;;;;;;4.60;99.90;;;;;;6155176;23;19912;-76
2024/03/13 05:52:23;;;;;;;;;;;4.60;99.90;;;;;;6155294;23;20570;-76
2024/03/13 05:54:49;;;;;;;;;;;4.50;99.90;;;;;;6106260;23;19915;-77
2024/03/13 05:57:14;;;;;;;;;;;4.60;99.90;;;;;;6153896;23;19948;-76
2024/03/13 05:59:40;;;;;;;;;;;4.60;99.90;;;;;;6154492;23;19983;-77
2024/03/13 06:02:06;;;;;;;;;;;4.60;99.90;;;;;;6129989;23;19908;-76
2024/03/13 06:04:33;;;;;;;;;;;4.60;99.90;;;;;;6131565;23;19944;-76
2024/03/13 06:06:59;;;;;;;;;;;4.60;99.90;;;;;;6182106;23;20591;-76
2024/03/13 06:09:25;;;;;;;;;;;4.60;99.90;;;;;;6156871;23;20310;-77
2024/03/13 06:11:52;;;;;;;;;;;4.60;99.90;;;;;;6156955;23;19909;-76
2024/03/13 06:14:17;;;;;;;;;;;4.60;99.90;;;;;;6156403;23;19971;-76
2024/03/13 06:16:43;;;;;;;;;;;4.60;99.90;;;;;;6156846;23;19913;-76
2024/03/13 06:19:08;;;;;;;;;;;4.60;99.90;;;;;;6131807;23;19979;-76
2024/03/13 06:21:34;;;;;;;;;;;4.60;99.90;;;;;;6156421;23;19921;-77
2024/03/13 06:24:03;;;;;;;;;;;4.60;99.90;;;;;;6156552;23;20318;-76
2024/03/13 06:26:30;;;;;;;;;;;4.70;99.90;;;;;;6132617;23;19924;-76
2024/03/13 06:31:40;;;;;;;;;;;4.70;99.90;;;;;;6156442;23;20005;-76
2024/03/13 06:34:08;;;;;;;;;;;4.70;99.90;;;;;;6156193;23;19912;-76
2024/03/13 06:36:37;;;;;;;;;;;4.80;99.90;;;;;;6156368;23;19976;-75
2024/03/13 06:39:03;;;;;;;;;;;4.80;99.90;;;;;;6154773;23;19912;-76
2024/03/13 06:41:29;;;;;;;;;;;4.80;99.90;;;;;;6131481;23;19916;-76
2024/03/13 06:43:55;;;;;;;;;;;4.90;99.90;;;;;;6131660;23;20298;-78
2024/03/13 06:46:21;;;;;;;;;;;4.90;99.90;;;;;;6156334;23;20275;-76
2024/03/13 06:48:47;;;;;;;;;;;5.00;99.90;;;;;;6155993;23;19912;-76
2024/03/13 06:51:13;;;;;;;;;;;5.00;99.90;;;;;;6157446;23;20318;-76
2024/03/13 06:53:38;;;;;;;;;;;5.10;99.90;;;;;;6155926;23;20303;-77
2024/03/13 06:56:04;;;;;;;;;;;5.10;99.90;;;;;;6156024;23;19912;-76
2024/03/13 06:58:30;;;;;;;;;;;5.20;99.90;;;;;;6156446;23;19972;-77
2024/03/13 07:00:59;;;;;;;;;;;5.20;99.90;;;;;;6157058;23;19971;-77
2024/03/13 07:03:25;;;;;;;;;;;5.30;99.90;;;;;;6156900;23;19912;-77
2024/03/13 07:05:53;;;;;;;;;;;5.30;99.90;;;;;;6131670;23;19919;-78
2024/03/13 07:08:19;;;;;;;;;;;5.30;99.90;;;;;;6133648;23;20640;-78
2024/03/13 07:10:45;;;;;;;;;;;5.40;99.90;;;;;;6156156;23;19912;-78
2024/03/13 07:13:11;;;;;;;;;;;5.40;99.90;;;;;;6156145;23;19932;-78
2024/03/13 07:15:42;;;;;;;;;;;5.50;99.90;;;;;;6131968;23;20258;-76
2024/03/13 07:18:08;;;;;;;;;;;5.60;99.90;;;;;;6156964;23;19963;-76
2024/03/13 07:20:33;;;;;;;;;;;5.60;99.90;;;;;;6155156;23;20314;-77
2024/03/13 07:22:59;;;;;;;;;;;5.70;99.90;;;;;;6179928;23;19909;-77
2024/03/13 07:25:25;;;;;;;;;;;5.80;99.90;;;;;;6156793;23;19909;-76
2024/03/13 07:27:51;;;;;;;;;;;5.80;99.90;;;;;;6156736;23;19913;-77
2024/03/13 07:30:17;;;;;;;;;;;5.90;99.90;;;;;;6156798;23;19939;-76
2024/03/13 07:32:42;;;;;;;;;;;5.90;99.90;;;;;;6156169;23;20283;-77
2024/03/13 07:35:10;;;;;;;;;;;6.00;99.90;;;;;;6155800;23;19947;-77
2024/03/13 07:37:36;;;;;;;;;;;6.10;99.90;;;;;;6156616;23;20286;-77
2024/03/13 07:40:05;;;;;;;;;;;6.10;99.90;;;;;;6155992;23;19920;-76
2024/03/13 07:42:33;;;;;;;;;;;6.20;99.90;;;;;;6156529;23;19920;-77
2024/03/13 07:44:59;;;;;;;;;;;6.20;99.90;;;;;;6156242;23;19924;-76
2024/03/13 07:47:25;;;;;;;;;;;6.30;99.90;;;;;;6156304;23;19912;-76
2024/03/13 07:49:50;;;;;;;;;;;6.40;99.90;;;;;;6155884;23;20651;-78
2024/03/13 07:52:16;;;;;;;;;;;6.40;99.90;;;;;;6131486;23;19932;-76
2024/03/13 07:54:42;;;;;;;;;;;6.50;99.90;;;;;;6156229;23;19980;-76
2024/03/13 07:57:13;;;;;;;;;;;6.60;99.90;;;;;;6131266;23;19912;-76
2024/03/13 07:59:43;;;;;;;;;;;6.60;99.90;;;;;;6133291;23;19916;-76
2024/03/13 08:02:09;;;;;;;;;;;6.70;99.90;;;;;;6133337;23;19980;-76
2024/03/13 08:04:36;;;;;;;;;;;6.80;99.90;;;;;;6153713;23;19912;-76
2024/03/13 08:07:03;;;;;;;;;;;6.80;99.90;;;;;;6179481;23;19913;-76
2024/03/13 08:09:29;;;;;;;;;;;6.90;99.90;;;;;;6131120;23;19912;-76
2024/03/13 08:11:54;;;;;;;;;;;6.90;99.90;;;;;;6155933;23;19924;-76
2024/03/13 08:14:21;;;;;;;;;;;7.00;99.90;;;;;;6129820;23;19913;-77
2024/03/13 08:16:47;;;;;;;;;;;7.00;99.90;;;;;;6154718;23;19908;-77
2024/03/13 08:19:13;;;;;;;;;;;7.10;99.90;;;;;;6154519;23;19913;-77
2024/03/13 08:21:38;;;;;;;;;;;7.20;99.90;;;;;;6131316;23;20427;-76
2024/03/13 08:24:06;;;;;;;;;;;7.30;99.90;;;;;;6131091;23;19917;-76
2024/03/13 08:26:31;;;;;;;;;;;7.40;99.90;;;;;;6155933;23;19920;-77
2024/03/13 08:28:57;;;;;;;;;;;7.50;99.90;;;;;;6156301;23;19974;-77
2024/03/13 08:31:23;;;;;;;;;;;7.50;99.90;;;;;;6156211;23;19916;-76
2024/03/13 08:33:48;;;;;;;;;;;7.60;99.90;;;;;;6156885;23;19915;-77
2024/03/13 08:36:15;;;;;;;;;;;7.70;99.90;;;;;;6155116;23;20318;-76
2024/03/13 08:38:41;;;;;;;;;;;7.90;99.90;;;;;;6154590;23;19917;-76
2024/03/13 08:41:06;;;;;;;;;;;8.00;99.90;;;;;;6155125;23;19983;-76
2024/03/13 08:43:32;;;;;;;;;;;8.00;99.90;;;;;;6155665;23;19919;-77
2024/03/13 08:45:58;;;;;;;;;;;8.20;99.90;;;;;;6155774;23;19959;-77
2024/03/13 08:48:26;;;;;;;;;;;8.20;99.90;;;;;;6156353;23;19971;-76
2024/03/13 08:50:52;;;;;;;;;;;8.30;99.90;;;;;;6179753;23;19982;-77
2024/03/13 08:53:18;;;;;;;;;;;8.40;99.90;;;;;;6154777;23;19908;-77
2024/03/13 08:55:43;;;;;;;;;;;8.40;99.90;;;;;;6180442;23;19908;-76
2024/03/13 08:58:09;;;;;;;;;;;8.60;99.90;;;;;;6131740;23;19959;-77
2024/03/13 09:00:34;;;;;;;;;;;8.70;99.90;;;;;;6155182;23;19927;-77
2024/03/13 09:03:01;;;;;;;;;;;8.70;99.90;;;;;;6155109;23;19908;-76
2024/03/13 09:05:28;;;;;;;;;;;8.70;99.90;;;;;;6154858;23;19908;-77
2024/03/13 09:07:53;;;;;;;;;;;8.80;99.90;;;;;;6155525;23;19909;-76
2024/03/13 09:10:19;;;;;;;;;;;8.80;99.90;;;;;;6155456;23;19912;-77
2024/03/13 09:12:48;;;;;;;;;;;8.90;99.90;;;;;;6154517;23;19917;-76
2024/03/13 09:15:13;;;;;;;;;;;9.00;99.90;;;;;;6130961;23;20329;-77
2024/03/13 09:17:39;;;;;;;;;;;9.10;99.90;;;;;;6155622;23;19912;-77
2024/03/13 09:20:06;;;;;;;;;;;9.20;99.90;;;;;;6155565;23;20456;-77
2024/03/13 09:22:32;;;;;;;;;;;9.30;99.90;;;;;;6155716;23;20214;-76
2024/03/13 09:24:58;;;;;;;;;;;9.30;99.90;;;;;;6155812;23;20008;-76
2024/03/13 09:27:23;;;;;;;;;;;9.40;99.90;;;;;;6155010;23;19916;-77
2024/03/13 09:29:49;;;;;;;;;;;9.40;99.90;;;;;;6154873;23;19984;-77
2024/03/13 09:32:15;;;;;;;;;;;9.50;99.90;;;;;;6156011;23;19909;-77
2024/03/13 09:34:41;;;;;;;;;;;9.50;99.90;;;;;;6155594;23;19960;-78
2024/03/13 09:37:07;;;;;;;;;;;9.50;99.90;;;;;;6155805;23;19913;-77
2024/03/13 09:39:33;;;;;;;;;;;9.60;99.90;;;;;;6156778;23;19978;-76
2024/03/13 09:41:59;;;;;;;;;;;9.60;99.90;;;;;;6181985;23;19917;-77
2024/03/13 09:44:29;;;;;;;;;;;9.70;99.90;;;;;;6133099;23;19912;-77
2024/03/13 09:46:55;;;;;;;;;;;9.90;99.90;;;;;;6157460;23;19913;-77
2024/03/13 09:49:21;;;;;;;;;;;10.10;99.90;;;;;;6157416;23;19912;-77
2024/03/13 09:51:47;;;;;;;;;;;10.10;99.90;;;;;;6158108;23;19908;-77
2024/03/13 09:54:14;;;;;;;;;;;10.10;99.90;;;;;;6159284;23;19909;-77
2024/03/13 09:56:40;;;;;;;;;;;10.20;99.90;;;;;;6155071;23;19912;-77
2024/03/13 09:59:12;;;;;;;;;;;10.30;99.90;;;;;;6157684;23;19908;-77
2024/03/13 10:01:41;;;;;;;;;;;10.40;99.90;;;;;;6154409;23;19982;-78
2024/03/13 10:04:10;;;;;;;;;;;10.40;99.90;;;;;;6132386;23;20031;-77
2024/03/13 10:06:40;;;;;;;;;;;10.50;99.90;;;;;;6133388;23;20475;-76
2024/03/13 10:09:12;;;;;;;;;;;10.60;99.90;;;;;;6156150;23;19968;-77
2024/03/13 10:11:44;;;;;;;;;;;10.60;99.90;;;;;;6157102;23;20316;-77
2024/03/13 10:14:11;;;;;;;;;;;10.60;99.90;;;;;;6132626;23;19912;-77
2024/03/13 10:16:37;;;;;;;;;;;10.70;99.90;;;;;;6131779;23;19921;-77
2024/03/13 10:19:03;;;;;;;;;;;10.70;99.90;;;;;;6156284;23;19913;-77
2024/03/13 10:21:30;;;;;;;;;;;10.70;99.90;;;;;;6155703;23;19930;-77
2024/03/13 10:23:56;;;;;;;;;;;10.90;99.90;;;;;;6157109;23;19908;-77
2024/03/13 10:26:22;;;;;;;;;;;10.90;99.90;;;;;;6132269;23;19924;-77
2024/03/13 10:28:48;;;;;;;;;;;11.00;99.90;;;;;;6132503;23;19971;-77
2024/03/13 10:31:15;;;;;;;;;;;11.10;99.90;;;;;;6156435;23;19913;-77
2024/03/13 10:33:42;;;;;;;;;;;11.20;99.90;;;;;;6156912;23;20214;-77
2024/03/13 10:36:07;;;;;;;;;;;11.30;99.90;;;;;;6155958;23;19908;-77
2024/03/13 10:38:37;;;;;;;;;;;11.20;99.90;;;;;;6155224;23;20020;-77
2024/03/13 10:41:03;;;;;;;;;;;11.30;99.90;;;;;;6155836;23;19913;-77
2024/03/13 10:43:32;;;;;;;;;;;11.30;99.90;;;;;;6131255;23;19939;-78
2024/03/13 10:45:57;;;;;;;;;;;11.40;99.90;;;;;;6156674;23;19913;-76
2024/03/13 10:48:24;;;;;;;;;;;11.40;99.90;;;;;;6155918;23;19940;-77
2024/03/13 10:50:50;;;;;;;;;;;11.50;99.90;;;;;;6155608;23;19967;-77
2024/03/13 10:53:16;;;;;;;;;;;11.60;99.90;;;;;;6131662;23;19909;-77
2024/03/13 10:55:42;;;;;;;;;;;11.70;99.90;;;;;;6156277;23;19913;-78
2024/03/13 10:58:16;;;;;;;;;;;11.70;99.90;;;;;;6155008;23;19948;-78
2024/03/13 11:00:41;;;;;;;;;;;11.60;99.90;;;;;;6154943;23;19947;-78
2024/03/13 11:03:07;;;;;;;;;;;11.60;99.90;;;;;;6153549;23;19917;-78
2024/03/13 11:05:33;;;;;;;;;;;11.60;99.90;;;;;;6154024;23;19943;-77
2024/03/13 11:07:59;;;;;;;;;;;11.60;99.90;;;;;;6153117;23;19913;-76
2024/03/13 11:10:25;;;;;;;;;;;11.50;99.90;;;;;;6154515;23;19916;-77
2024/03/13 11:12:50;;;;;;;;;;;11.50;99.90;;;;;;6155281;23;20329;-77
2024/03/13 11:15:27;;;;;;;;;;;11.50;99.90;;;;;;6130302;23;19968;-78
2024/03/13 11:17:56;;;;;;;;;;;11.50;99.90;;;;;;6130956;23;20374;-77
2024/03/13 11:20:21;;;;;;;;;;;11.50;99.90;;;;;;6129933;23;19921;-78
2024/03/13 11:22:50;;;;;;;;;;;11.50;99.90;;;;;;6153027;23;19913;-77
2024/03/13 11:25:17;;;;;;;;;;;11.50;99.90;;;;;;6154949;23;19913;-77
2024/03/13 11:27:44;;;;;;;;;;;11.40;99.90;;;;;;6130475;23;19971;-77
2024/03/13 11:30:13;;;;;;;;;;;11.40;99.90;;;;;;6155701;23;20376;-77
2024/03/13 11:32:40;;;;;;;;;;;11.40;99.90;;;;;;6131711;23;19912;-77
2024/03/13 11:35:05;;;;;;;;;;;11.40;99.90;;;;;;6156019;23;20206;-77
2024/03/13 11:37:31;;;;;;;;;;;11.40;99.90;;;;;;6155349;23;19919;-75
2024/03/13 11:39:57;;;;;;;;;;;11.40;99.90;;;;;;6155381;23;19962;-75
2024/03/13 11:42:29;;;;;;;;;;;11.40;99.90;;;;;;6155639;23;19920;-75
2024/03/13 11:45:09;;;;;;;;;;;11.40;99.90;;;;;;6156329;23;19912;-75
2024/03/13 11:47:37;;;;;;;;;;;11.40;99.90;;;;;;6130854;23;19917;-75
2024/03/13 11:50:03;;;;;;;;;;;11.50;99.90;;;;;;6130461;23;19908;-75
2024/03/13 11:52:28;;;;;;;;;;;11.50;99.90;;;;;;6156496;23;19978;-75
2024/03/13 11:54:57;;;;;;;;;;;11.60;99.90;;;;;;6156755;23;19935;-75
2024/03/13 11:57:22;;;;;;;;;;;11.60;99.90;;;;;;6155896;23;19983;-75
2024/03/13 11:59:52;;;;;;;;;;;11.60;99.90;;;;;;6155932;23;19909;-75
2024/03/13 12:02:27;;;;;;;;;;;11.60;99.90;;;;;;6131518;23;19932;-75
2024/03/13 12:04:54;;;;;;;;;;;11.60;99.90;;;;;;6180543;23;20027;-75
2024/03/13 12:07:20;;;;;;;;;;;11.60;99.90;;;;;;6156243;23;19912;-75
2024/03/13 12:09:46;;;;;;;;;;;11.60;99.90;;;;;;6180837;23;19920;-75
2024/03/13 12:12:13;;;;;;;;;;;11.60;99.90;;;;;;6156312;23;19912;-75
2024/03/13 12:14:39;;;;;;;;;;;11.60;99.90;;;;;;6156050;23;19912;-75
2024/03/13 12:17:05;;;;;;;;;;;11.60;99.90;;;;;;6131029;23;19917;-75
2024/03/13 12:19:30;;;;;;;;;;;11.60;99.90;;;;;;6155328;23;19971;-75
2024/03/13 12:21:57;;;;;;;;;;;11.60;99.90;;;;;;6181016;23;19913;-75
2024/03/13 12:24:23;;;;;;;;;;;11.60;99.90;;;;;;6156022;23;20027;-75
2024/03/13 12:26:52;;;;;;;;;;;11.60;99.90;;;;;;6156342;23;19913;-75
2024/03/13 12:29:17;;;;;;;;;;;11.60;99.90;;;;;;6154454;23;20187;-75
2024/03/13 12:31:43;;;;;;;;;;;11.50;99.90;;;;;;6153829;23;19913;-76
2024/03/13 12:34:10;;;;;;;;;;;11.60;99.90;;;;;;6154892;23;19912;-75
2024/03/13 12:36:43;;;;;;;;;;;11.50;99.90;;;;;;6154491;23;19915;-75
2024/03/13 12:39:10;;;;;;;;;;;11.50;99.90;;;;;;6154598;23;19967;-79
2024/03/13 12:41:36;;;;;;;;;;;11.60;99.90;;;;;;6130318;23;19913;-78
2024/03/13 12:44:03;;;;;;;;;;;11.50;99.90;;;;;;6179393;23;20360;-79
2024/03/13 12:46:29;;;;;;;;;;;11.60;99.90;;;;;;6130179;23;20195;-78
2024/03/13 12:48:55;;;;;;;;;;;11.60;99.90;;;;;;6155754;23;19923;-78
2024/03/13 12:51:22;;;;;;;;;;;11.60;99.90;;;;;;6131786;23;19936;-78
2024/03/13 12:53:47;;;;;;;;;;;11.60;99.90;;;;;;6156135;23;19912;-79
2024/03/13 12:56:15;;;;;;;;;;;11.60;99.90;;;;;;6155993;23;19974;-78
2024/03/13 12:58:40;;;;;;;;;;;11.60;99.90;;;;;;6156360;23;19908;-79
2024/03/13 13:01:08;;;;;;;;;;;11.70;99.90;;;;;;6155037;23;19913;-78
2024/03/13 13:03:37;;;;;;;;;;;11.70;99.90;;;;;;6156477;23;19913;-78
2024/03/13 13:06:03;;;;;;;;;;;11.70;99.90;;;;;;6108445;23;19909;-78
2024/03/13 13:08:29;;;;;;;;;;;11.70;99.90;;;;;;6131311;23;19908;-79
2024/03/13 13:10:56;;;;;;;;;;;11.70;99.90;;;;;;6180797;23;19908;-78
2024/03/13 13:13:22;;;;;;;;;;;11.70;99.90;;;;;;6154773;23;19932;-78
2024/03/13 13:15:48;;;;;;;;;;;11.80;99.90;;;;;;6156325;23;19976;-76
2024/03/13 13:18:14;;;;;;;;;;;11.70;99.90;;;;;;6155233;23;19913;-77
2024/03/13 13:20:39;;;;;;;;;;;11.80;99.90;;;;;;6154234;23;19921;-76
2024/03/13 13:23:05;;;;;;;;;;;11.80;99.90;;;;;;6156040;23;19912;-77
2024/03/13 13:25:32;;;;;;;;;;;11.90;99.90;;;;;;6131299;23;19908;-77
2024/03/13 13:27:57;;;;;;;;;;;11.90;99.90;;;;;;6155208;23;19913;-77
2024/03/13 13:30:29;;;;;;;;;;;11.90;99.90;;;;;;6154348;23;20253;-77
2024/03/13 13:32:55;;;;;;;;;;;11.90;99.90;;;;;;6155447;23;19913;-77
2024/03/13 13:35:20;;;;;;;;;;;11.90;99.90;;;;;;6129192;23;19920;-76
2024/03/13 13:37:49;;;;;;;;;;;12.00;99.90;;;;;;6153674;23;19968;-77
2024/03/13 13:40:19;;;;;;;;;;;12.00;99.90;;;;;;6153061;23;20361;-77
2024/03/13 13:42:45;;;;;;;;;;;12.00;99.90;;;;;;6152986;23;19935;-77
2024/03/13 13:45:13;;;;;;;;;;;12.00;99.90;;;;;;6154173;23;19909;-77
2024/03/13 13:47:39;;;;;;;;;;;12.00;99.90;;;;;;6130260;23;19909;-76
2024/03/13 13:50:10;;;;;;;;;;;11.90;99.90;;;;;;6104403;23;19923;-77
2024/03/13 13:52:36;;;;;;;;;;;11.90;99.90;;;;;;6154083;23;19908;-76
2024/03/13 13:55:02;;;;;;;;;;;11.90;99.90;;;;;;6128886;23;20548;-76
2024/03/13 13:57:28;;;;;;;;;;;11.90;99.90;;;;;;6153068;23;20334;-76
2024/03/13 13:59:54;;;;;;;;;;;11.90;99.90;;;;;;6154512;23;19976;-78
2024/03/13 14:02:19;;;;;;;;;;;11.90;99.90;;;;;;6129315;23;19912;-77
2024/03/13 14:04:45;;;;;;;;;;;11.90;99.90;;;;;;6152852;23;20306;-79
2024/03/13 14:07:10;;;;;;;;;;;11.90;99.90;;;;;;6177767;23;20007;-78
2024/03/13 14:09:36;;;;;;;;;;;11.90;99.90;;;;;;6152630;23;19909;-78
2024/03/13 14:12:02;;;;;;;;;;;11.90;99.90;;;;;;6154326;23;20202;-78
2024/03/13 14:14:30;;;;;;;;;;;11.90;99.90;;;;;;6105181;23;19916;-78
2024/03/13 14:16:55;;;;;;;;;;;11.90;99.90;;;;;;6155764;23;20298;-78
2024/03/13 14:19:21;;;;;;;;;;;11.90;99.90;;;;;;6130936;23;19971;-78
2024/03/13 14:21:49;;;;;;;;;;;11.80;99.90;;;;;;6130930;23;19931;-77
2024/03/13 14:24:14;;;;;;;;;;;11.80;99.90;;;;;;6155840;23;19923;-78
2024/03/13 14:26:40;;;;;;;;;;;11.80;99.90;;;;;;6156640;23;19959;-77
2024/03/13 14:29:06;;;;;;;;;;;11.80;99.90;;;;;;6131755;23;20499;-78
2024/03/13 14:31:33;;;;;;;;;;;11.80;99.90;;;;;;6156534;23;19913;-78
2024/03/13 14:33:59;;;;;;;;;;;11.80;99.90;;;;;;6157416;23;19912;-78
2024/03/13 14:36:27;;;;;;;;;;;11.80;99.90;;;;;;6156813;23;19916;-78
2024/03/13 14:38:59;;;;;;;;;;;11.80;99.90;;;;;;6180954;23;19955;-78
2024/03/13 14:41:30;;;;;;;;;;;11.80;99.90;;;;;;6132146;23;20243;-77
2024/03/13 14:43:56;;;;;;;;;;;11.80;99.90;;;;;;6133261;23;20206;-77